Time;durP1;ratioP1;P1;durP2;ratioP2;P2;SDS_P1;SDS_P2;PMS_P1;PMS_P2;Temp;Humidity;BMP_temperature;BMP_pressure;BME280_temperature;BME280_humidity;BME280_pressure;Samples;Min_cycle;Max_cycle;Signal;HPM_P1;HPM_P2
2021/12/26 00:01:12;;;;;;;4.65;1.95;;;;;;;-9.41;63.49;98222.38;5076577;28;20068;-65
2021/12/26 00:03:40;;;;;;;5.43;2.05;;;;;;;-9.33;63.39;98214.41;5073295;28;20032;-66
2021/12/26 00:06:11;;;;;;;3.65;1.80;;;;;;;-9.21;62.68;98218.41;5073309;28;20050;-64
2021/12/26 00:08:38;;;;;;;5.43;1.67;;;;;;;-9.30;62.61;98203.94;5073417;28;20509;-63
2021/12/26 00:11:04;;;;;;;4.45;1.67;;;;;;;-9.38;63.09;98213.66;5073199;28;20142;-65
2021/12/26 00:13:31;;;;;;;3.08;1.70;;;;;;;-9.44;63.27;98211.25;5072826;28;20416;-65
2021/12/26 00:15:58;;;;;;;5.65;2.42;;;;;;;-9.47;63.78;98204.38;5073798;28;20036;-65
2021/12/26 00:18:23;;;;;;;5.15;2.15;;;;;;;-9.50;63.92;98217.41;5072976;28;20031;-64
2021/12/26 00:20:50;;;;;;;7.57;2.60;;;;;;;-9.46;64.10;98221.63;5072708;28;20465;-64
2021/12/26 00:23:16;;;;;;;6.47;2.58;;;;;;;-9.44;64.58;98204.31;5073462;28;20022;-64
2021/12/26 00:25:44;;;;;;;6.25;2.13;;;;;;;-9.34;64.77;98219.63;5072672;28;20024;-65
2021/12/26 00:28:09;;;;;;;4.85;1.92;;;;;;;-9.23;64.32;98217.59;5072530;28;20134;-65
2021/12/26 00:30:35;;;;;;;5.22;2.05;;;;;;;-9.11;63.83;98217.28;5073607;28;20454;-67
2021/12/26 00:33:01;;;;;;;5.18;2.00;;;;;;;-9.13;63.94;98197.47;5072459;28;20374;-64
2021/12/26 00:35:27;;;;;;;6.18;2.25;;;;;;;-8.88;63.73;98223.59;5072850;28;20032;-67
2021/12/26 00:37:53;;;;;;;6.40;1.95;;;;;;;-8.71;63.65;98230.03;5073633;28;20082;-69
2021/12/26 00:40:21;;;;;;;4.93;2.28;;;;;;;-8.58;63.29;98212.38;5072731;28;20054;-64
2021/12/26 00:42:47;;;;;;;4.47;1.80;;;;;;;-8.44;63.44;98206.75;5072276;28;20032;-66
2021/12/26 00:45:13;;;;;;;4.60;2.20;;;;;;;-8.38;62.78;98212.63;5073442;28;20040;-68
2021/12/26 00:47:39;;;;;;;4.00;2.53;;;;;;;-8.27;62.87;98211.47;5072934;28;20048;-68
2021/12/26 00:50:09;;;;;;;4.00;2.00;;;;;;;-8.23;62.72;98213.06;5072467;28;20101;-69
2021/12/26 00:52:34;;;;;;;4.35;2.45;;;;;;;-8.25;62.71;98213.09;5073398;28;20037;-67
2021/12/26 00:55:00;;;;;;;3.70;2.22;;;;;;;-8.09;62.98;98225.63;5074140;28;20020;-68
2021/12/26 00:57:26;;;;;;;4.97;2.28;;;;;;;-8.03;62.91;98204.66;5073469;28;20055;-68
2021/12/26 00:59:51;;;;;;;4.40;2.33;;;;;;;-8.01;62.93;98195.06;5073314;28;20051;-68
2021/12/26 01:02:17;;;;;;;7.22;2.70;;;;;;;-7.99;62.73;98201.06;5073512;28;20036;-67
2021/12/26 01:04:43;;;;;;;4.82;2.20;;;;;;;-7.92;62.67;98193.91;5073643;28;20036;-67
2021/12/26 01:07:21;;;;;;;3.63;1.98;;;;;;;-7.86;62.75;98193.72;5073234;28;20041;-69
2021/12/26 01:09:50;;;;;;;8.25;2.40;;;;;;;-7.95;62.73;98168.03;5072741;28;20028;-65
2021/12/26 01:12:16;;;;;;;4.93;2.40;;;;;;;-7.80;62.60;98167.56;5073538;28;20028;-68
2021/12/26 01:14:48;;;;;;;5.22;2.33;;;;;;;-7.80;62.94;98167.56;5073619;28;20036;-68
2021/12/26 01:17:18;;;;;;;3.47;2.15;;;;;;;-7.77;62.54;98171.78;5073056;28;20036;-67
2021/12/26 01:19:48;;;;;;;3.30;2.45;;;;;;;-7.95;62.82;98132.53;5073068;28;20028;-66
2021/12/26 01:22:15;;;;;;;4.53;2.20;;;;;;;-7.72;63.05;98164.69;5073202;28;20028;-66
2021/12/26 01:24:45;;;;;;;5.88;2.70;;;;;;;-7.72;62.82;98149.09;5073496;28;20032;-66
2021/12/26 01:27:11;;;;;;;4.70;2.55;;;;;;;-7.97;62.66;98113.53;5072685;28;20070;-66
2021/12/26 01:29:37;;;;;;;4.38;2.08;;;;;;;-7.84;62.69;98144.31;5072656;28;20025;-66
2021/12/26 01:32:04;;;;;;;4.25;2.20;;;;;;;-8.06;63.06;98137.22;5073308;28;20036;-67
2021/12/26 01:34:30;;;;;;;4.65;2.30;;;;;;;-8.18;63.46;98135.88;5073520;28;20068;-66
2021/12/26 01:36:56;;;;;;;4.10;2.53;;;;;;;-8.34;63.73;98139.84;5072714;28;20052;-67
2021/12/26 01:39:22;;;;;;;5.10;2.40;;;;;;;-8.53;64.23;98125.72;5072390;28;20130;-66
2021/12/26 01:41:49;;;;;;;5.43;2.72;;;;;;;-8.48;64.53;98137.66;5073013;28;20044;-66
2021/12/26 01:44:16;;;;;;;4.40;2.58;;;;;;;-8.53;64.57;98133.50;5071824;28;20390;-67
2021/12/26 01:46:44;;;;;;;6.40;2.70;;;;;;;-8.53;64.76;98150.84;5072505;28;20053;-66
2021/12/26 01:49:16;;;;;;;5.75;2.95;;;;;;;-8.56;65.52;98156.09;5072119;28;20040;-66
2021/12/26 01:51:45;;;;;;;5.65;2.78;;;;;;;-8.51;65.40;98149.88;5072609;28;20028;-66
2021/12/26 01:54:13;;;;;;;3.75;2.70;;;;;;;-8.45;65.42;98147.94;5072604;28;20024;-66
2021/12/26 01:56:41;;;;;;;5.63;2.67;;;;;;;-8.34;65.33;98147.63;5071993;28;20040;-66
2021/12/26 01:59:09;;;;;;;5.18;2.30;;;;;;;-8.16;64.66;98139.25;5072289;28;20055;-65
2021/12/26 02:01:35;;;;;;;5.03;2.67;;;;;;;-8.04;64.68;98147.56;5072056;28;20082;-64
2021/12/26 02:04:02;;;;;;;4.78;2.42;;;;;;;-7.93;64.19;98143.72;5072301;28;20060;-65
2021/12/26 02:06:28;;;;;;;5.35;2.63;;;;;;;-7.89;63.76;98121.06;5072033;28;20024;-66
2021/12/26 02:08:53;;;;;;;4.97;2.63;;;;;;;-7.85;64.29;98127.03;5075452;28;20033;-66
2021/12/26 02:11:19;;;;;;;3.45;2.17;;;;;;;-7.78;64.46;98136.31;5072721;28;20107;-65
2021/12/26 02:13:46;;;;;;;4.63;2.90;;;;;;;-7.71;64.03;98132.63;5071416;28;20485;-66
2021/12/26 02:16:13;;;;;;;5.10;2.88;;;;;;;-7.71;64.10;98132.63;5071784;28;20071;-66
2021/12/26 02:18:40;;;;;;;4.70;3.00;;;;;;;-7.71;64.01;98137.81;5071842;28;20028;-66
2021/12/26 02:21:18;;;;;;;5.25;2.40;;;;;;;-7.69;64.45;98123.03;5071817;28;20078;-67
2021/12/26 02:24:03;;;;;;;5.88;2.72;;;;;;;-7.67;64.05;98131.63;5071875;28;20059;-66
2021/12/26 02:29:12;;;;;;;5.13;2.65;;;;;;;-7.70;64.53;98110.06;5071603;28;20024;-66
2021/12/26 02:31:38;;;;;;;6.68;2.88;;;;;;;-7.78;64.35;98098.19;5071607;28;20392;-64
2021/12/26 02:34:04;;;;;;;3.63;2.17;;;;;;;-7.62;64.47;98117.63;5072298;28;20029;-67
2021/12/26 02:36:30;;;;;;;5.38;3.13;;;;;;;-7.80;64.16;98094.81;5071493;28;20513;-68
2021/12/26 02:38:55;;;;;;;5.15;2.80;;;;;;;-7.68;64.31;98113.47;5071455;28;20358;-67
2021/12/26 02:41:21;;;;;;;5.75;2.80;;;;;;;-7.71;64.57;98108.38;5071999;28;20062;-66
2021/12/26 02:43:46;;;;;;;6.03;2.90;;;;;;;-7.83;64.77;98099.25;5071617;28;20158;-68
2021/12/26 02:46:12;;;;;;;4.13;2.85;;;;;;;-7.81;65.01;98120.81;5071238;28;20116;-65
2021/12/26 02:48:38;;;;;;;5.35;2.78;;;;;;;-7.88;65.17;98107.19;5071755;28;20451;-67
2021/12/26 02:51:04;;;;;;;4.47;2.78;;;;;;;-7.86;65.44;98110.56;5072260;28;20048;-67
2021/12/26 02:53:30;;;;;;;4.07;2.47;;;;;;;-7.89;65.44;98109.84;5070158;28;20041;-66
2021/12/26 02:55:57;;;;;;;6.75;2.40;;;;;;;-7.91;65.54;98099.50;5071152;28;20370;-66
2021/12/26 02:58:23;;;;;;;3.25;2.25;;;;;;;-7.96;65.55;98107.47;5071770;28;20024;-67
2021/12/26 03:01:02;;;;;;;5.75;2.40;;;;;;;-7.89;65.47;98102.91;5071696;28;20020;-66
2021/12/26 03:03:27;;;;;;;5.28;2.28;;;;;;;-7.89;65.70;98104.66;5070910;28;20059;-66
2021/12/26 03:05:57;;;;;;;5.80;2.17;;;;;;;-7.85;65.59;98106.25;5071032;28;20059;-67
2021/12/26 03:08:23;;;;;;;5.10;2.25;;;;;;;-7.88;65.29;98099.41;5071656;28;20089;-68
2021/12/26 03:10:49;;;;;;;4.30;2.40;;;;;;;-7.85;65.32;98111.44;5071295;28;20028;-67
2021/12/26 03:13:15;;;;;;;5.75;2.20;;;;;;;-7.82;65.40;98095.75;5070973;28;20032;-67
2021/12/26 03:15:41;;;;;;;4.45;2.60;;;;;;;-7.82;65.14;98096.63;5070875;28;20032;-63
2021/12/26 03:18:07;;;;;;;7.88;2.28;;;;;;;-7.79;65.70;98090.44;5071570;28;20032;-66
2021/12/26 03:20:38;;;;;;;5.38;2.20;;;;;;;-7.85;65.25;98085.47;5071500;28;20062;-66
2021/12/26 03:23:04;;;;;;;3.50;2.38;;;;;;;-7.93;66.10;98096.97;5071024;28;20206;-68
2021/12/26 03:25:32;;;;;;;5.60;2.40;;;;;;;-7.98;65.60;98077.25;5070959;28;20032;-68
2021/12/26 03:27:59;;;;;;;4.65;2.35;;;;;;;-7.94;65.69;98077.09;5075012;28;20386;-66
2021/12/26 03:30:26;;;;;;;4.25;2.63;;;;;;;-7.98;65.83;98074.63;5075513;28;20036;-66
2021/12/26 03:32:54;;;;;;;2.95;1.90;;;;;;;-8.08;66.08;98084.47;5075077;28;20118;-67
2021/12/26 03:35:21;;;;;;;4.90;3.05;;;;;;;-8.06;66.13;98072.28;5074695;28;20039;-67
2021/12/26 03:37:47;;;;;;;3.78;2.15;;;;;;;-8.04;65.71;98074.84;5074961;28;20042;-67
2021/12/26 03:40:12;;;;;;;3.35;2.05;;;;;;;-8.00;65.79;98066.88;5075174;28;20086;-64
2021/12/26 03:42:38;;;;;;;4.38;2.47;;;;;;;-8.01;66.11;98064.34;5074895;28;20108;-69
2021/12/26 03:45:06;;;;;;;4.45;2.63;;;;;;;-7.85;65.77;98090.66;5074627;28;20124;-65
2021/12/26 03:47:32;;;;;;;4.70;2.45;;;;;;;-7.81;65.36;98061.94;5074878;28;20094;-66
2021/12/26 03:49:59;;;;;;;5.05;3.00;;;;;;;-7.77;65.91;98091.25;5075079;28;20036;-69
2021/12/26 03:52:25;;;;;;;4.10;2.60;;;;;;;-7.68;65.41;98075.34;5074507;28;20048;-67
2021/12/26 03:54:52;;;;;;;8.00;2.70;;;;;;;-7.58;65.32;98099.28;5074422;28;20063;-67
2021/12/26 03:57:17;;;;;;;3.58;2.03;;;;;;;-7.49;65.11;98082.47;5074641;28;20407;-67
2021/12/26 03:59:43;;;;;;;5.70;2.80;;;;;;;-7.38;64.93;98090.75;5074318;28;20036;-64
2021/12/26 04:02:09;;;;;;;4.05;2.72;;;;;;;-7.27;64.48;98076.50;5074771;28;20031;-67
2021/12/26 04:04:35;;;;;;;4.60;2.58;;;;;;;-7.25;64.95;98085.97;5074002;28;20035;-67
2021/12/26 04:07:00;;;;;;;5.72;2.55;;;;;;;-7.20;64.78;98083.22;5074679;28;20029;-68
2021/12/26 04:09:26;;;;;;;4.38;2.60;;;;;;;-7.17;64.73;98085.69;5074043;28;20115;-67
2021/12/26 04:11:52;;;;;;;5.32;2.47;;;;;;;-7.16;64.74;98087.38;5074182;28;20444;-65
2021/12/26 04:14:17;;;;;;;5.68;2.65;;;;;;;-7.17;64.54;98077.88;5074952;28;20374;-68
2021/12/26 04:16:43;;;;;;;7.47;2.58;;;;;;;-7.12;64.76;98073.38;5076964;28;20032;-65
2021/12/26 04:19:09;;;;;;;5.50;2.85;;;;;;;-7.04;64.42;98090.44;5077317;28;20047;-66
2021/12/26 04:21:35;;;;;;;4.53;2.63;;;;;;;-6.97;64.26;98078.91;5073199;28;20481;-66
2021/12/26 04:24:02;;;;;;;3.80;2.33;;;;;;;-6.87;64.64;98075.03;5073835;28;20128;-66
2021/12/26 04:26:28;;;;;;;4.25;2.50;;;;;;;-6.83;64.75;98066.22;5073660;28;20033;-68
2021/12/26 04:28:53;;;;;;;6.57;2.40;;;;;;;-6.79;64.47;98077.34;5074237;28;20119;-66
2021/12/26 04:31:19;;;;;;;4.38;2.60;;;;;;;-6.73;64.05;98055.47;5073976;28;20376;-66
2021/12/26 04:33:46;;;;;;;6.45;2.88;;;;;;;-6.90;64.27;98041.34;5073904;28;20026;-62
2021/12/26 04:36:13;;;;;;;3.88;2.33;;;;;;;-6.79;64.24;98065.19;5074128;28;20024;-67
2021/12/26 04:38:39;;;;;;;4.47;2.40;;;;;;;-6.81;64.73;98053.97;5073247;28;20046;-66
2021/12/26 04:41:06;;;;;;;4.85;2.35;;;;;;;-6.77;64.55;98065.13;5073477;28;20370;-66
2021/12/26 04:43:35;;;;;;;4.82;2.67;;;;;;;-6.97;64.58;98016.47;5073638;28;20029;-65
2021/12/26 04:46:05;;;;;;;3.20;2.33;;;;;;;-6.67;64.88;98055.22;5074240;28;20119;-67
2021/12/26 04:48:30;;;;;;;3.33;2.20;;;;;;;-6.72;64.68;98044.13;5073482;28;20113;-67
2021/12/26 04:50:56;;;;;;;4.53;2.10;;;;;;;-6.87;64.71;98028.19;5073458;28;20546;-68
2021/12/26 04:53:21;;;;;;;5.18;2.33;;;;;;;-6.74;64.67;98054.59;5073900;28;20091;-67
2021/12/26 04:55:47;;;;;;;4.75;2.70;;;;;;;-6.69;64.99;98072.66;5073798;28;20024;-67
2021/12/26 04:58:12;;;;;;;5.78;2.55;;;;;;;-6.70;64.76;98063.97;5073212;28;20025;-68
2021/12/26 05:00:38;;;;;;;5.05;2.63;;;;;;;-6.58;64.54;98078.28;5073123;28;20062;-67
2021/12/26 05:03:04;;;;;;;3.83;2.35;;;;;;;-6.54;64.47;98063.38;5073531;28;20131;-66
2021/12/26 05:05:31;;;;;;;5.10;2.88;;;;;;;-6.57;64.69;98066.94;5073729;28;20028;-66
2021/12/26 05:07:57;;;;;;;6.78;2.60;;;;;;;-6.53;64.24;98073.72;5073243;28;20036;-67
2021/12/26 05:10:28;;;;;;;4.22;2.47;;;;;;;-6.47;64.70;98087.44;5072880;28;20129;-67
2021/12/26 05:12:58;;;;;;;7.72;2.97;;;;;;;-6.41;64.75;98082.81;5073389;28;20122;-66
2021/12/26 05:15:24;;;;;;;4.78;2.65;;;;;;;-6.39;63.98;98074.94;5073393;28;20032;-67
2021/12/26 05:17:51;;;;;;;3.88;2.28;;;;;;;-6.31;64.78;98075.47;5072923;28;20067;-66
2021/12/26 05:20:20;;;;;;;4.45;2.58;;;;;;;-6.18;64.36;98085.41;5072839;28;20169;-67
2021/12/26 05:22:50;;;;;;;4.05;2.50;;;;;;;-6.14;64.01;98071.34;5073468;28;20028;-65
2021/12/26 05:25:17;;;;;;;5.55;2.72;;;;;;;-6.01;64.01;98090.81;5073934;28;20036;-66
2021/12/26 05:27:43;;;;;;;8.32;2.78;;;;;;;-6.02;63.79;98077.81;5072994;28;20600;-66
2021/12/26 05:30:14;;;;;;;5.45;2.88;;;;;;;-5.95;63.66;98067.06;5072533;28;20112;-67
2021/12/26 05:32:41;;;;;;;3.83;2.00;;;;;;;-5.94;63.67;98073.97;5072891;28;20031;-66
2021/12/26 05:35:08;;;;;;;5.57;2.88;;;;;;;-5.96;63.82;98067.97;5072891;28;20032;-66
2021/12/26 05:37:34;;;;;;;4.35;2.70;;;;;;;-5.96;63.68;98073.19;5072855;28;20090;-66
2021/12/26 05:40:02;;;;;;;4.70;2.30;;;;;;;-5.95;63.89;98074.88;5072390;28;20061;-67
2021/12/26 05:42:30;;;;;;;4.70;2.47;;;;;;;-6.00;63.90;98060.31;5072647;28;20506;-67
2021/12/26 05:44:56;;;;;;;3.55;2.30;;;;;;;-5.99;64.03;98062.88;5072664;28;20025;-67
2021/12/26 05:47:21;;;;;;;4.95;2.83;;;;;;;-5.94;64.53;98068.75;5071167;28;20053;-66
2021/12/26 05:49:47;;;;;;;6.10;2.88;;;;;;;-6.11;63.62;98035.63;5071671;28;20413;-66
2021/12/26 05:52:13;;;;;;;6.40;2.90;;;;;;;-5.87;63.74;98066.75;5072054;28;20056;-69
2021/12/26 05:54:39;;;;;;;5.32;2.80;;;;;;;-5.92;63.35;98064.31;5072102;28;20512;-67
2021/12/26 05:57:05;;;;;;;5.70;2.63;;;;;;;-5.83;63.53;98067.44;5072189;28;20056;-67
2021/12/26 05:59:31;;;;;;;8.68;2.90;;;;;;;-5.83;63.65;98063.09;5072027;28;20032;-65
2021/12/26 06:01:56;;;;;;;3.72;2.45;;;;;;;-5.82;63.58;98049.13;5070858;28;20392;-66
2021/12/26 06:04:23;;;;;;;5.72;2.65;;;;;;;-5.86;63.53;98044.13;5071803;28;20031;-65
2021/12/26 06:06:49;;;;;;;4.57;2.50;;;;;;;-5.79;63.58;98050.75;5070804;28;20488;-67
2021/12/26 06:09:14;;;;;;;4.18;2.88;;;;;;;-5.88;63.77;98043.34;5070847;28;20024;-67
2021/12/26 06:11:40;;;;;;;4.55;2.40;;;;;;;-5.76;63.51;98045.44;5071504;28;20469;-67
2021/12/26 06:14:05;;;;;;;3.45;2.05;;;;;;;-5.89;63.83;98047.72;5071591;28;20032;-66
2021/12/26 06:16:31;;;;;;;6.60;3.15;;;;;;;-5.95;63.73;98038.38;5071737;28;20040;-66
2021/12/26 06:18:57;;;;;;;6.13;2.40;;;;;;;-6.00;63.74;98049.91;5071286;28;20079;-66
2021/12/26 06:21:22;;;;;;;4.75;2.67;;;;;;;-5.99;63.96;98059.41;5071457;28;20053;-66
2021/12/26 06:23:51;;;;;;;6.72;2.80;;;;;;;-5.98;63.97;98053.28;5072196;28;20158;-68
2021/12/26 06:26:18;;;;;;;3.75;2.38;;;;;;;-5.99;63.83;98064.63;5081112;28;20084;-64
2021/12/26 06:28:43;;;;;;;8.45;2.53;;;;;;;-6.01;63.79;98051.72;5083789;28;20028;-65
2021/12/26 06:31:09;;;;;;;4.93;2.35;;;;;;;-5.95;63.76;98050.56;5071508;28;20432;-66
2021/12/26 06:33:34;;;;;;;6.25;2.88;;;;;;;-5.92;63.58;98040.00;5071492;28;20461;-67
2021/12/26 06:36:00;;;;;;;5.15;2.70;;;;;;;-5.82;63.65;98053.50;5071186;28;20036;-67
2021/12/26 06:38:25;;;;;;;5.00;2.40;;;;;;;-5.87;63.46;98047.63;5071140;28;20419;-67
2021/12/26 06:40:51;;;;;;;6.47;2.70;;;;;;;-5.81;62.92;98050.84;5072120;28;20032;-66
2021/12/26 06:43:16;;;;;;;4.75;2.50;;;;;;;-5.80;63.51;98055.13;5071791;28;20032;-67
2021/12/26 06:45:42;;;;;;;10.63;2.80;;;;;;;-5.72;63.42;98059.16;5070987;28;20032;-65
2021/12/26 06:48:09;;;;;;;6.25;3.33;;;;;;;-5.77;63.78;98064.59;5071148;28;20056;-66
2021/12/26 06:50:36;;;;;;;4.07;2.35;;;;;;;-5.72;63.63;98057.41;5071527;28;20039;-66
2021/12/26 06:53:03;;;;;;;3.92;2.45;;;;;;;-5.75;63.54;98054.94;5071249;28;20050;-67
2021/12/26 06:55:28;;;;;;;4.00;2.40;;;;;;;-5.78;63.55;98042.88;5070886;28;20058;-66
2021/12/26 06:57:54;;;;;;;7.00;2.90;;;;;;;-5.68;63.15;98047.69;5071218;28;20537;-66
2021/12/26 07:00:19;;;;;;;5.28;2.67;;;;;;;-5.72;63.48;98048.72;5071758;28;20385;-67
2021/12/26 07:02:45;;;;;;;5.93;2.53;;;;;;;-5.63;63.10;98059.63;5071113;28;20112;-66
2021/12/26 07:05:12;;;;;;;4.65;2.25;;;;;;;-5.58;63.25;98048.13;5070751;28;20036;-67
2021/12/26 07:07:39;;;;;;;3.70;2.30;;;;;;;-5.56;62.97;98035.88;5071220;28;20067;-66
2021/12/26 07:10:06;;;;;;;9.05;2.85;;;;;;;-5.57;63.05;98049.81;5070414;28;20032;-67
2021/12/26 07:12:32;;;;;;;7.28;3.38;;;;;;;-5.59;62.87;98038.63;5070189;28;20028;-67
2021/12/26 07:14:57;;;;;;;6.40;3.05;;;;;;;-5.56;62.65;98043.69;5070779;28;20180;-67
2021/12/26 07:17:23;;;;;;;4.53;1.98;;;;;;;-5.66;62.39;98007.59;5081562;28;20028;-65
2021/12/26 07:19:48;;;;;;;5.82;2.67;;;;;;;-5.35;62.00;98034.09;5091478;28;20036;-64
2021/12/26 07:22:14;;;;;;;4.50;2.20;;;;;;;-5.35;62.46;98047.13;5090959;28;20028;-66
2021/12/26 07:24:43;;;;;;;5.25;2.72;;;;;;;-5.43;62.02;98044.88;5090774;28;20093;-67
2021/12/26 07:27:13;;;;;;;6.10;2.88;;;;;;;-5.37;62.51;98038.53;5090926;28;20035;-65
2021/12/26 07:29:39;;;;;;;6.95;2.95;;;;;;;-5.31;62.39;98048.69;5091376;28;20028;-67
2021/12/26 07:32:07;;;;;;;4.60;2.53;;;;;;;-5.23;62.00;98049.19;5091168;28;20035;-65
2021/12/26 07:34:33;;;;;;;4.55;2.58;;;;;;;-5.08;61.45;98025.94;5090676;28;20032;-65
2021/12/26 07:36:59;;;;;;;3.90;2.38;;;;;;;-5.18;61.06;98009.84;5090955;28;20036;-66
2021/12/26 07:39:25;;;;;;;4.28;2.33;;;;;;;-4.99;60.84;98025.50;5091548;28;20031;-66
2021/12/26 07:41:50;;;;;;;7.13;2.83;;;;;;;-4.93;60.52;98037.44;5089562;28;20353;-65
2021/12/26 07:44:16;;;;;;;11.13;2.13;;;;;;;-4.92;60.78;98028.69;5089931;28;20039;-65
2021/12/26 07:46:41;;;;;;;4.15;2.10;;;;;;;-5.08;60.60;98034.59;5089533;28;20052;-67
2021/12/26 07:49:07;;;;;;;6.55;2.45;;;;;;;-5.09;60.83;98032.91;5089792;28;20119;-65
2021/12/26 07:51:32;;;;;;;3.80;2.40;;;;;;;-5.02;60.98;98037.88;5089387;28;20083;-67
2021/12/26 07:54:00;;;;;;;6.72;2.50;;;;;;;-4.91;61.07;98030.38;5089732;28;20040;-63
2021/12/26 07:56:26;;;;;;;6.30;2.80;;;;;;;-4.80;60.78;98030.72;5089372;28;20469;-68
2021/12/26 07:58:51;;;;;;;5.10;2.50;;;;;;;-4.72;60.88;98035.56;5090382;28;20039;-66
2021/12/26 08:01:17;;;;;;;4.88;2.72;;;;;;;-4.51;60.57;98025.03;5089573;28;20032;-69
2021/12/26 08:03:42;;;;;;;4.15;2.83;;;;;;;-4.47;59.82;98039.63;5090022;28;20034;-70
2021/12/26 08:06:13;;;;;;;6.20;2.55;;;;;;;-4.50;60.07;98024.09;5089913;28;20036;-71
2021/12/26 08:08:38;;;;;;;7.00;2.45;;;;;;;-4.62;59.92;98012.47;5089463;28;20042;-73
2021/12/26 08:11:04;;;;;;;5.47;2.63;;;;;;;-4.58;60.26;98016.66;5089900;28;20106;-68
2021/12/26 08:13:31;;;;;;;4.60;2.67;;;;;;;-4.59;60.19;98011.50;5092198;28;20056;-65
2021/12/26 08:15:57;;;;;;;6.72;2.67;;;;;;;-4.56;60.12;98014.81;5093117;28;20039;-67
2021/12/26 08:18:22;;;;;;;7.97;2.85;;;;;;;-4.57;60.14;98015.75;5093544;28;20028;-70
2021/12/26 08:20:48;;;;;;;5.57;2.50;;;;;;;-4.58;60.09;98011.44;5093282;28;20043;-67
2021/12/26 08:23:14;;;;;;;4.05;2.50;;;;;;;-4.64;60.03;97998.66;5093562;28;20515;-69
2021/12/26 08:25:40;;;;;;;4.15;2.45;;;;;;;-4.56;59.80;98006.97;5092067;28;20492;-74
2021/12/26 08:28:05;;;;;;;5.53;2.47;;;;;;;-4.71;59.94;97974.59;5093806;28;20036;-67
2021/12/26 08:30:31;;;;;;;8.57;2.90;;;;;;;-4.45;60.15;98003.84;5093186;28;20053;-71
2021/12/26 08:33:03;;;;;;;6.68;2.95;;;;;;;-4.40;60.01;98001.00;5096234;28;20039;-72
2021/12/26 08:35:29;;;;;;;5.95;2.65;;;;;;;-4.40;60.00;97998.38;5109010;28;20047;-67
2021/12/26 08:37:54;;;;;;;4.45;2.63;;;;;;;-4.43;60.27;97988.09;5110091;28;20369;-68
2021/12/26 08:40:20;;;;;;;6.38;2.85;;;;;;;-4.43;60.14;97988.09;5093467;28;20028;-69
2021/12/26 08:42:45;;;;;;;5.78;2.72;;;;;;;-4.43;60.01;97998.53;5092698;28;20028;-69
2021/12/26 08:45:11;;;;;;;5.00;2.72;;;;;;;-4.55;59.80;97960.81;5093754;28;20032;-73
2021/12/26 08:47:38;;;;;;;10.15;2.90;;;;;;;-4.37;60.19;97982.56;5093064;28;20059;-69
2021/12/26 08:50:07;;;;;;;4.80;2.60;;;;;;;-4.30;60.01;97989.19;5094300;28;20028;-70
2021/12/26 08:52:32;;;;;;;3.92;2.55;;;;;;;-4.35;60.29;97983.31;5094302;28;20036;-67
2021/12/26 08:54:58;;;;;;;5.32;2.90;;;;;;;-4.39;60.44;97979.16;5094236;28;20027;-64
2021/12/26 08:57:23;;;;;;;6.80;2.83;;;;;;;-4.41;60.17;97978.41;5094404;28;20047;-66
2021/12/26 08:59:49;;;;;;;5.25;2.72;;;;;;;-4.43;60.48;97977.63;5092035;28;20024;-66
2021/12/26 09:02:14;;;;;;;5.85;2.63;;;;;;;-4.43;60.84;97964.56;5092522;28;20038;-63
2021/12/26 09:04:40;;;;;;;8.73;2.65;;;;;;;-4.50;61.05;97957.06;5092974;28;20036;-64
2021/12/26 09:07:07;;;;;;;5.68;2.78;;;;;;;-4.45;60.79;97969.03;5092424;28;20024;-64
2021/12/26 09:09:33;;;;;;;7.30;2.80;;;;;;;-4.47;60.62;97972.56;5092179;28;20028;-63
2021/12/26 09:11:59;;;;;;;3.90;2.47;;;;;;;-4.47;60.47;97974.31;5092309;28;20059;-63
2021/12/26 09:14:29;;;;;;;5.43;2.90;;;;;;;-4.45;60.70;97967.28;5093056;28;20501;-73
2021/12/26 09:16:56;;;;;;;5.30;2.58;;;;;;;-4.48;60.95;97949.97;5066085;28;20034;-70
2021/12/26 09:19:23;;;;;;;5.05;3.05;;;;;;;-4.41;60.77;97957.50;5072112;28;20496;-66
2021/12/26 09:21:50;;;;;;;5.60;3.03;;;;;;;-4.42;60.23;97953.19;5072446;28;20044;-78
2021/12/26 09:24:15;;;;;;;6.55;3.00;;;;;;;-4.38;60.47;97944.28;5071483;28;20060;-69
2021/12/26 09:26:41;;;;;;;6.78;3.33;;;;;;;-4.37;60.08;97948.59;5072551;28;20047;-63
2021/12/26 09:29:06;;;;;;;5.75;3.10;;;;;;;-4.27;59.75;97942.00;5072015;28;20066;-63
2021/12/26 09:31:32;;;;;;;4.35;2.40;;;;;;;-4.23;60.23;97943.53;5072100;28;20609;-67
2021/12/26 09:33:57;;;;;;;6.13;2.55;;;;;;;-4.22;60.20;97953.06;5073258;28;20029;-69
2021/12/26 09:36:23;;;;;;;6.82;2.83;;;;;;;-4.26;60.58;97934.97;5072424;28;20377;-67
2021/12/26 09:38:49;;;;;;;8.20;3.25;;;;;;;-4.26;60.21;97948.91;5072920;28;20058;-73
2021/12/26 09:41:15;;;;;;;3.95;2.53;;;;;;;-4.21;60.29;97939.06;5072127;28;20025;-68
2021/12/26 09:43:41;;;;;;;4.60;2.50;;;;;;;-4.26;60.34;97948.91;5071738;28;20111;-59
2021/12/26 09:46:07;;;;;;;6.13;2.65;;;;;;;-4.36;60.71;97942.44;5071836;28;20035;-69
2021/12/26 09:48:32;;;;;;;6.43;3.08;;;;;;;-4.38;61.09;97939.06;5076716;28;20033;-66
2021/12/26 09:50:58;;;;;;;8.70;3.20;;;;;;;-4.33;61.07;97942.31;5080095;28;20037;-65
2021/12/26 09:53:24;;;;;;;6.15;2.65;;;;;;;-4.33;61.05;97932.69;5070410;28;20043;-70
2021/12/26 09:55:50;;;;;;;8.73;2.70;;;;;;;-4.34;60.47;97914.47;5073618;28;20032;-71
2021/12/26 09:58:16;;;;;;;4.60;2.65;;;;;;;-4.25;60.46;97928.84;5070885;28;20051;-75
2021/12/26 10:00:44;;;;;;;5.63;2.80;;;;;;;-4.22;60.65;97923.44;5070759;28;20033;-72
2021/12/26 10:03:22;;;;;;;4.82;3.05;;;;;;;-4.16;60.75;97923.16;5071606;28;20033;-70
2021/12/26 10:06:03;;;;;;;6.78;2.72;;;;;;;-4.07;60.02;97912.22;5074344;28;20115;-72
2021/12/26 10:08:31;;;;;;;4.72;2.83;;;;;;;-4.15;59.84;97892.63;5072064;28;20042;-75
2021/12/26 10:11:04;;;;;;;7.13;3.03;;;;;;;-3.98;59.44;97913.50;5075080;28;20488;-72
2021/12/26 10:13:41;;;;;;;6.10;2.58;;;;;;;-3.90;59.95;97898.25;5071858;28;20450;-74
2021/12/26 10:16:07;;;;;;;6.05;2.90;;;;;;;-3.93;59.64;97908.06;5072511;28;20107;-75
2021/12/26 10:18:39;;;;;;;4.43;2.60;;;;;;;-3.94;59.48;97912.44;5070946;28;20107;-74
2021/12/26 10:21:21;;;;;;;4.30;2.65;;;;;;;-3.97;59.75;97891.66;5072035;28;20585;-71
2021/12/26 10:23:46;;;;;;;5.20;2.70;;;;;;;-4.15;59.27;97884.78;5072201;28;20024;-72
2021/12/26 10:26:23;;;;;;;6.53;2.70;;;;;;;-4.00;59.33;97897.06;5086795;28;20038;-66
2021/12/26 10:29:05;;;;;;;6.32;3.00;;;;;;;-4.00;59.54;97889.22;5070867;28;20071;-70
2021/12/26 10:31:31;;;;;;;7.80;2.55;;;;;;;-4.03;59.63;97890.22;5068527;28;20041;-71
2021/12/26 10:33:56;;;;;;;4.82;2.60;;;;;;;-4.00;59.59;97878.78;5068127;28;20032;-67
2021/12/26 10:36:22;;;;;;;5.80;2.42;;;;;;;-4.03;59.22;97881.53;5070159;28;20036;-71
2021/12/26 10:39:12;;;;;;;4.47;2.70;;;;;;;-4.04;59.85;97861.56;5053020;28;20024;-79
2021/12/26 10:41:47;;;;;;;6.03;2.80;;;;;;;-3.98;59.28;97874.31;5071074;28;20027;-67
2021/12/26 10:44:31;;;;;;;5.38;2.50;;;;;;;-3.92;59.82;97878.38;5083476;28;20049;-69
2021/12/26 10:47:00;;;;;;;5.22;2.50;;;;;;;-4.13;59.01;97846.34;5075200;28;20127;-70
2021/12/26 10:49:31;;;;;;;4.88;2.40;;;;;;;-3.99;59.73;97869.13;5074376;28;20063;-66
2021/12/26 10:51:58;;;;;;;7.53;2.92;;;;;;;-3.99;59.21;97861.31;5071112;28;20101;-68
2021/12/26 10:54:26;;;;;;;3.78;2.35;;;;;;;-4.02;59.33;97857.09;5068638;28;20024;-67
2021/12/26 10:57:10;;;;;;;5.63;2.47;;;;;;;-3.96;59.15;97862.00;5070427;28;20035;-67
2021/12/26 10:59:40;;;;;;;5.82;2.75;;;;;;;-4.03;59.23;97848.41;5070628;28;20583;-67
2021/12/26 11:02:07;;;;;;;8.32;3.50;;;;;;;-4.12;59.67;97846.28;5070913;28;20032;-69
2021/12/26 11:04:34;;;;;;;7.05;3.10;;;;;;;-4.16;59.49;97849.97;5070225;28;20084;-70
2021/12/26 11:07:04;;;;;;;5.63;3.00;;;;;;;-4.16;59.84;97842.13;5070552;28;20029;-68
2021/12/26 11:09:29;;;;;;;5.78;2.70;;;;;;;-4.14;59.71;97842.03;5070571;28;20379;-68
2021/12/26 11:12:03;;;;;;;4.18;2.40;;;;;;;-4.10;59.76;97849.66;5069571;28;20035;-72
2021/12/26 11:14:29;;;;;;;5.88;2.72;;;;;;;-4.21;59.69;97852.81;5070272;28;20432;-67
2021/12/26 11:16:55;;;;;;;6.63;2.90;;;;;;;-4.25;60.02;97853.91;5070607;28;20024;-70
2021/12/26 11:19:44;;;;;;;7.90;2.60;;;;;;;-4.16;60.21;97846.50;5069309;28;20148;-69
2021/12/26 11:22:10;;;;;;;5.43;2.55;;;;;;;-4.25;60.19;97835.63;5070092;28;20103;-69
2021/12/26 11:24:36;;;;;;;7.65;2.90;;;;;;;-4.32;60.19;97836.88;5070172;28;20109;-72
2021/12/26 11:27:02;;;;;;;3.83;2.70;;;;;;;-4.26;60.61;97843.53;5070085;28;20362;-71
2021/12/26 11:29:28;;;;;;;6.55;3.17;;;;;;;-4.47;60.24;97810.63;5070579;28;20035;-66
2021/12/26 11:31:55;;;;;;;7.03;3.10;;;;;;;-4.62;60.93;97796.59;5070066;28;20078;-71
2021/12/26 11:34:21;;;;;;;4.72;1.90;;;;;;;-4.41;60.61;97834.72;5070148;28;20075;-74
2021/12/26 11:36:50;;;;;;;5.22;2.75;;;;;;;-4.38;60.71;97826.72;5069915;28;20028;-72